createdAt,value
2023-05-05T00:02:02.475Z,78.01
2023-05-05T00:04:28.813Z,76.03
2023-05-05T00:06:55.153Z,76.32
2023-05-05T00:09:21.538Z,76.67
2023-05-05T00:11:47.858Z,76.47
2023-05-05T00:14:14.287Z,78.27
2023-05-05T00:16:40.645Z,80.36
2023-05-05T00:19:07.032Z,81.48
2023-05-05T00:21:33.411Z,81.99
2023-05-05T00:23:59.783Z,83.07
2023-05-05T00:26:26.094Z,82.25
2023-05-05T00:28:52.483Z,82.23
2023-05-05T00:31:18.793Z,81.83
2023-05-05T00:33:45.156Z,80.82
2023-05-05T00:36:11.572Z,80.82
2023-05-05T00:38:37.911Z,81.09
2023-05-05T00:41:04.389Z,80.67
2023-05-05T00:43:30.721Z,81.48
2023-05-05T00:46:02.048Z,82.91
2023-05-05T00:48:30.397Z,82.17
2023-05-05T00:50:56.919Z,83.74
2023-05-05T00:53:23.289Z,83.41
2023-05-05T00:55:49.815Z,83.81
2023-05-05T00:58:16.813Z,84.46
2023-05-05T01:00:43.132Z,84.32
2023-05-05T01:03:09.662Z,84.27
2023-05-05T01:05:55.710Z,84.69
2023-05-05T01:08:37.318Z,85.25
2023-05-05T01:11:17.199Z,85.53
2023-05-05T01:14:14.356Z,86.89
2023-05-05T01:16:50.978Z,87.23
2023-05-05T01:19:35.895Z,88.06
2023-05-05T01:22:06.956Z,88.31
2023-05-05T01:24:55.782Z,90.58
2023-05-05T01:27:47.508Z,90.78
2023-05-05T01:30:29.121Z,88.55
2023-05-05T01:33:03.709Z,88.97
2023-05-05T01:35:37.936Z,88.75
2023-05-05T01:38:21.145Z,89.51
2023-05-05T01:40:57.502Z,88.94
2023-05-05T01:43:27.783Z,89.71
2023-05-05T01:45:55.715Z,89.64
2023-05-05T01:48:23.455Z,92.44
2023-05-05T01:50:52.785Z,90.33
2023-05-05T01:53:22.305Z,90.67
2023-05-05T01:55:50.442Z,91.76
2023-05-05T01:58:17.377Z,96.16
2023-05-05T02:00:44.390Z,93.66
2023-05-05T02:03:13.733Z,92.81
2023-05-05T02:05:41.642Z,92.92
2023-05-05T02:08:09.416Z,91.63
2023-05-05T02:10:37.985Z,93.80
2023-05-05T02:13:04.868Z,93.45
2023-05-05T02:15:31.712Z,92.41
2023-05-05T02:18:00.148Z,93.21
2023-05-05T02:20:28.018Z,95.19
2023-05-05T02:22:54.454Z,97.45
2023-05-05T02:25:21.539Z,96.24
2023-05-05T02:27:49.191Z,95.23
2023-05-05T02:30:19.650Z,94.13
2023-05-05T02:32:51.514Z,93.96
2023-05-05T02:35:22.364Z,92.92
2023-05-05T02:37:56.088Z,93.12
2023-05-05T02:40:26.226Z,92.80
2023-05-05T02:42:55.807Z,96.50
2023-05-05T02:45:24.751Z,98.55
2023-05-05T02:47:51.069Z,96.08
2023-05-05T02:50:17.896Z,95.21
2023-05-05T02:52:45.668Z,95.08
2023-05-05T02:55:12.863Z,95.08
2023-05-05T02:58:07.868Z,95.84
2023-05-05T03:00:41.187Z,96.47
2023-05-05T03:03:37.139Z,94.75
2023-05-05T03:06:19.569Z,95.43
2023-05-05T03:09:13.885Z,95.66
2023-05-05T03:11:54.993Z,94.14
2023-05-05T03:14:22.107Z,93.53
2023-05-05T03:16:49.317Z,93.10
2023-05-05T03:19:20.185Z,93.17
2023-05-05T03:21:47.581Z,93.61
2023-05-05T03:24:13.908Z,93.90
2023-05-05T03:26:40.279Z,93.79
2023-05-05T03:29:06.743Z,93.90
2023-05-05T03:31:33.360Z,94.01
2023-05-05T03:33:59.717Z,93.35
2023-05-05T03:36:27.859Z,93.70
2023-05-05T03:38:55.598Z,93.33
2023-05-05T03:41:22.797Z,94.67
2023-05-05T03:43:49.405Z,95.77
2023-05-05T03:46:15.979Z,95.32
2023-05-05T03:48:42.958Z,96.47
2023-05-05T03:51:09.378Z,96.85
2023-05-05T03:53:35.905Z,97.11
2023-05-05T03:56:02.253Z,97.76
2023-05-05T03:58:28.579Z,98.83
2023-05-05T04:00:54.930Z,98.28
2023-05-05T04:03:21.375Z,97.28
2023-05-05T04:05:47.964Z,97.07
2023-05-05T04:08:14.309Z,95.97
2023-05-05T04:10:40.677Z,95.22
2023-05-05T04:13:06.985Z,95.51
2023-05-05T04:15:33.355Z,96.15
2023-05-05T04:17:59.786Z,96.68
2023-05-05T04:20:26.250Z,95.38
2023-05-05T04:22:52.825Z,97.09
2023-05-05T04:25:19.236Z,97.65
2023-05-05T04:27:45.594Z,96.58
2023-05-05T04:30:12.947Z,95.63
2023-05-05T04:32:39.275Z,96.16
2023-05-05T04:35:06.061Z,96.26
2023-05-05T04:37:32.388Z,96.76
2023-05-05T04:39:58.765Z,97.29
2023-05-05T04:42:25.113Z,97.38
2023-05-05T04:44:51.463Z,97.73
2023-05-05T04:47:17.780Z,97.19
2023-05-05T04:49:44.118Z,97.74
2023-05-05T04:52:12.327Z,97.78
2023-05-05T04:54:38.724Z,97.69
2023-05-05T04:57:05.144Z,97.78
2023-05-05T04:59:31.446Z,97.70
2023-05-05T05:01:57.826Z,97.48
2023-05-05T05:04:25.286Z,97.22
2023-05-05T05:06:51.631Z,96.92
2023-05-05T05:09:18.023Z,97.17
2023-05-05T05:11:44.413Z,96.93
2023-05-05T05:14:10.783Z,96.89
2023-05-05T05:16:37.822Z,97.07
2023-05-05T05:19:04.228Z,97.15
2023-05-05T05:21:30.546Z,96.39
2023-05-05T05:23:57.031Z,95.90
2023-05-05T05:26:23.396Z,94.59
2023-05-05T05:28:49.687Z,91.95
2023-05-05T05:31:16.053Z,90.01
2023-05-05T05:33:42.345Z,88.30
2023-05-05T05:36:08.862Z,87.93
2023-05-05T05:38:35.207Z,87.12
2023-05-05T05:41:05.479Z,86.26
2023-05-05T05:43:31.825Z,83.63
2023-05-05T05:45:58.486Z,79.65
2023-05-05T05:48:24.898Z,76.69
2023-05-05T05:50:51.253Z,72.30
2023-05-05T05:53:17.695Z,69.38
2023-05-05T05:55:46.150Z,66.02
2023-05-05T05:58:12.523Z,62.59
2023-05-05T06:00:38.826Z,60.91
2023-05-05T06:03:05.306Z,58.42
2023-05-05T06:05:32.280Z,57.50
2023-05-05T06:07:58.604Z,55.20
2023-05-05T06:10:27.373Z,54.40
2023-05-05T06:12:54.805Z,52.76
2023-05-05T06:15:21.158Z,51.66
2023-05-05T06:17:47.502Z,48.71
2023-05-05T06:20:13.918Z,48.49
2023-05-05T06:22:40.261Z,46.67
2023-05-05T06:25:07.056Z,44.28
2023-05-05T06:27:33.412Z,44.54
2023-05-05T06:29:59.730Z,42.79
2023-05-05T06:32:26.162Z,41.44
2023-05-05T06:34:52.476Z,41.46
2023-05-05T06:37:18.784Z,42.05
2023-05-05T06:39:45.129Z,40.70
2023-05-05T06:42:11.460Z,39.19
2023-05-05T06:44:37.778Z,40.32
2023-05-05T06:47:04.191Z,39.24
2023-05-05T06:49:30.565Z,36.95
2023-05-05T06:51:56.906Z,36.88
2023-05-05T06:54:23.354Z,37.73
2023-05-05T06:56:49.675Z,37.32
2023-05-05T06:59:16.023Z,37.37
2023-05-05T07:01:42.373Z,37.40
2023-05-05T07:04:08.716Z,35.89
2023-05-05T07:06:35.127Z,35.88
2023-05-05T07:09:01.475Z,37.29
2023-05-05T07:11:27.792Z,36.04
2023-05-05T07:13:54.136Z,36.65
2023-05-05T07:16:20.520Z,36.16
2023-05-05T07:18:46.895Z,36.15
2023-05-05T07:21:13.234Z,35.05
2023-05-05T07:23:39.568Z,35.18
2023-05-05T07:26:06.041Z,35.97
2023-05-05T07:28:32.354Z,36.29
2023-05-05T07:30:58.648Z,36.41
2023-05-05T07:33:24.954Z,36.21
2023-05-05T07:35:51.347Z,35.56
2023-05-05T07:38:17.658Z,36.54
2023-05-05T07:40:44.038Z,34.51
2023-05-05T07:43:10.372Z,34.07
2023-05-05T07:45:36.737Z,34.90
2023-05-05T07:48:03.317Z,33.52
2023-05-05T07:50:29.680Z,34.99
2023-05-05T07:53:02.452Z,33.17
2023-05-05T07:55:39.788Z,34.57
2023-05-05T07:58:06.104Z,33.99
2023-05-05T08:00:32.484Z,34.13
2023-05-05T08:02:58.893Z,32.61
2023-05-05T08:05:25.233Z,32.38
2023-05-05T08:07:51.573Z,34.44
2023-05-05T08:10:17.956Z,34.24
2023-05-05T08:12:44.350Z,34.83
2023-05-05T08:15:11.205Z,35.11
2023-05-05T08:17:48.176Z,33.61
2023-05-05T08:20:15.941Z,35.62
2023-05-05T08:22:42.597Z,36.10
2023-05-05T08:25:09.838Z,35.23
2023-05-05T08:27:37.681Z,34.95
2023-05-05T08:30:04.868Z,36.18
2023-05-05T08:32:31.908Z,35.64
2023-05-05T08:34:58.243Z,36.42
2023-05-05T08:37:24.547Z,36.86
2023-05-05T08:39:50.837Z,37.93
2023-05-05T08:42:29.077Z,36.66
2023-05-05T08:45:02.363Z,34.99
2023-05-05T08:47:28.839Z,33.41
2023-05-05T08:49:56.734Z,34.27
2023-05-05T08:52:24.351Z,33.80
2023-05-05T08:54:55.231Z,33.54
2023-05-05T08:57:32.375Z,32.54
2023-05-05T09:00:00.483Z,32.42
2023-05-05T09:02:29.293Z,33.06
2023-05-05T09:04:56.218Z,32.71
2023-05-05T09:07:23.013Z,34.48
2023-05-05T09:09:49.881Z,33.78
2023-05-05T09:12:16.225Z,34.03
2023-05-05T09:14:42.608Z,34.41
2023-05-05T09:17:25.564Z,33.56
2023-05-05T09:20:06.780Z,32.85
2023-05-05T09:22:35.726Z,34.54
2023-05-05T09:25:02.354Z,35.13
2023-05-05T09:27:28.722Z,35.65
2023-05-05T09:29:55.389Z,36.38
2023-05-05T09:32:22.394Z,36.98
2023-05-05T09:35:01.351Z,36.14
2023-05-05T09:37:31.372Z,36.76
2023-05-05T09:39:59.813Z,37.62
2023-05-05T09:42:26.777Z,38.35
2023-05-05T09:44:53.749Z,38.09
2023-05-05T09:47:29.427Z,38.14
2023-05-05T09:49:57.623Z,39.49
2023-05-05T09:52:24.342Z,39.88
2023-05-05T09:54:55.344Z,41.55
2023-05-05T09:57:28.778Z,41.85
2023-05-05T09:59:56.715Z,43.02
2023-05-05T10:02:30.804Z,44.07
2023-05-05T10:05:04.513Z,44.44
2023-05-05T10:07:30.864Z,44.52
2023-05-05T10:09:57.200Z,45.27
2023-05-05T10:12:26.220Z,44.80
2023-05-05T10:14:55.292Z,45.12
2023-05-05T10:17:25.632Z,44.98
2023-05-05T10:19:56.878Z,46.00
2023-05-05T10:22:24.976Z,47.23
2023-05-05T10:24:57.576Z,46.77
2023-05-05T10:27:26.802Z,47.04
2023-05-05T10:30:07.776Z,47.53
2023-05-05T10:33:18.234Z,47.83
2023-05-05T10:35:52.042Z,47.42
2023-05-05T10:38:20.640Z,48.01
2023-05-05T10:40:48.005Z,46.68
2023-05-05T10:43:14.915Z,45.55
2023-05-05T10:45:42.552Z,46.39
2023-05-05T10:48:32.279Z,49.53
2023-05-05T10:51:38.633Z,49.18
2023-05-05T10:54:16.976Z,48.35
2023-05-05T10:56:43.567Z,47.05
2023-05-05T10:59:38.342Z,46.58
2023-05-05T11:02:24.941Z,48.13
2023-05-05T11:05:13.531Z,50.17
2023-05-05T11:07:39.968Z,50.07
2023-05-05T11:10:12.119Z,48.87
2023-05-05T11:12:53.970Z,48.56
2023-05-05T11:15:26.225Z,50.25
2023-05-05T11:18:00.334Z,50.12
2023-05-05T11:20:35.856Z,49.65
2023-05-05T11:23:02.241Z,51.29
2023-05-05T11:25:34.638Z,52.34
2023-05-05T11:28:21.469Z,51.61
2023-05-05T11:30:57.858Z,51.15
2023-05-05T11:33:34.961Z,49.30
2023-05-05T11:36:09.144Z,52.62
2023-05-05T11:38:44.469Z,56.25
2023-05-05T11:41:32.014Z,57.96
2023-05-05T11:44:11.548Z,62.04
2023-05-05T11:46:40.983Z,66.47
2023-05-05T11:49:07.734Z,68.70
2023-05-05T11:51:34.229Z,72.93
2023-05-05T11:54:00.664Z,77.00
2023-05-05T11:56:26.973Z,81.26
2023-05-05T11:59:10.570Z,84.75
2023-05-05T12:01:40.726Z,85.13
2023-05-05T12:04:11.298Z,87.36
2023-05-05T12:06:38.005Z,87.58
2023-05-05T12:09:04.428Z,90.17
2023-05-05T12:11:30.781Z,89.51
2023-05-05T12:14:10.290Z,90.85
2023-05-05T12:16:36.920Z,90.39
2023-05-05T12:19:04.929Z,90.43
2023-05-05T12:21:31.862Z,89.95
2023-05-05T12:23:59.289Z,89.08
2023-05-05T12:26:31.187Z,90.59
2023-05-05T12:28:59.033Z,91.82
2023-05-05T12:31:41.980Z,92.88
2023-05-05T12:34:10.092Z,92.13
2023-05-05T12:36:36.998Z,94.03
2023-05-05T12:39:06.516Z,94.24
2023-05-05T12:41:33.844Z,93.86
2023-05-05T12:44:01.755Z,96.22
2023-05-05T12:46:28.600Z,95.43
2023-05-05T12:49:05.524Z,97.60
2023-05-05T12:51:33.577Z,98.05
2023-05-05T12:54:08.506Z,98.31
2023-05-05T12:56:34.811Z,97.20
2023-05-05T12:59:12.476Z,98.49
2023-05-05T13:01:48.612Z,97.64
2023-05-05T13:04:15.087Z,97.56
2023-05-05T13:06:43.535Z,95.21
2023-05-05T13:09:22.542Z,93.90
2023-05-05T13:11:48.848Z,91.73
2023-05-05T13:14:15.186Z,92.41
2023-05-05T13:16:41.573Z,93.37
2023-05-05T13:19:07.882Z,91.80
2023-05-05T13:21:34.237Z,91.81
2023-05-05T13:24:12.483Z,94.52
2023-05-05T13:26:47.580Z,93.18
2023-05-05T13:29:13.986Z,95.33
2023-05-05T13:31:40.388Z,96.10
2023-05-05T13:34:06.720Z,100.00
2023-05-05T13:36:33.072Z,100.00
2023-05-05T13:38:59.436Z,100.00
2023-05-05T13:41:25.902Z,100.00
2023-05-05T13:43:52.261Z,100.00
2023-05-05T13:46:20.367Z,100.00
2023-05-05T13:48:46.840Z,100.00
2023-05-05T13:51:13.167Z,100.00
2023-05-05T13:53:39.510Z,100.00
2023-05-05T13:56:05.988Z,100.00
2023-05-05T13:58:32.311Z,100.00
2023-05-05T14:00:58.709Z,100.00
2023-05-05T14:03:25.146Z,100.00
2023-05-05T14:05:51.506Z,100.00
2023-05-05T14:08:17.885Z,100.00
2023-05-05T14:10:45.423Z,100.00
2023-05-05T14:13:13.625Z,100.00
2023-05-05T14:15:40.045Z,100.00
2023-05-05T14:18:06.565Z,100.00
2023-05-05T14:20:33.087Z,100.00
2023-05-05T14:22:59.560Z,100.00
2023-05-05T14:25:26.004Z,100.00
2023-05-05T14:27:54.842Z,100.00
2023-05-05T14:30:21.226Z,100.00
2023-05-05T14:32:47.557Z,100.00
2023-05-05T14:35:13.945Z,99.24
2023-05-05T14:37:40.254Z,100.00
2023-05-05T14:40:07.373Z,100.00
2023-05-05T14:42:33.814Z,100.00
2023-05-05T14:45:00.185Z,100.00
2023-05-05T14:47:26.495Z,100.00
2023-05-05T14:49:52.798Z,98.35
2023-05-05T14:52:19.090Z,97.15
2023-05-05T14:54:45.445Z,95.96
2023-05-05T14:57:11.918Z,94.63
2023-05-05T14:59:38.252Z,93.61
2023-05-05T15:02:04.672Z,93.21
2023-05-05T15:04:31.080Z,92.25
2023-05-05T15:06:57.404Z,92.72
2023-05-05T15:09:23.715Z,92.69
2023-05-05T15:11:50.103Z,92.38
2023-05-05T15:14:16.404Z,94.40
2023-05-05T15:16:42.753Z,93.95
2023-05-05T15:19:09.127Z,92.68
2023-05-05T15:21:35.481Z,90.15
2023-05-05T15:24:01.802Z,84.03
2023-05-05T15:26:28.164Z,86.93
2023-05-05T15:28:54.476Z,87.34
2023-05-05T15:31:20.822Z,88.58
2023-05-05T15:33:47.145Z,89.13
2023-05-05T15:36:13.554Z,83.95
2023-05-05T15:38:41.434Z,85.75
2023-05-05T15:41:07.765Z,84.87
2023-05-05T15:43:34.545Z,81.28
2023-05-05T15:46:00.847Z,82.57
2023-05-05T15:48:27.302Z,84.85
2023-05-05T15:50:53.647Z,83.27
2023-05-05T15:53:20.035Z,83.34
2023-05-05T15:55:46.338Z,83.82
2023-05-05T15:58:12.735Z,83.57
2023-05-05T16:00:39.345Z,78.63
2023-05-05T16:03:05.751Z,80.85
2023-05-05T16:05:32.263Z,82.72
2023-05-05T16:07:58.605Z,84.12
2023-05-05T16:10:24.944Z,84.92
2023-05-05T16:12:51.262Z,85.87
2023-05-05T16:15:17.780Z,85.26
2023-05-05T16:17:44.198Z,84.65
2023-05-05T16:20:11.232Z,83.85
2023-05-05T16:22:37.632Z,82.26
2023-05-05T16:25:04.375Z,83.89
2023-05-05T16:27:30.707Z,84.51
2023-05-05T16:29:59.560Z,84.11
2023-05-05T16:32:26.207Z,84.44
2023-05-05T16:34:52.610Z,84.41
2023-05-05T16:37:18.943Z,83.85
2023-05-05T16:39:45.300Z,83.15
2023-05-05T16:42:11.623Z,82.66
2023-05-05T16:44:38.257Z,81.44
2023-05-05T16:47:04.614Z,81.40
2023-05-05T16:49:31.044Z,80.93
2023-05-05T16:51:57.440Z,80.68
2023-05-05T16:54:23.796Z,82.98
2023-05-05T16:56:50.127Z,83.29
2023-05-05T16:59:16.474Z,84.97
2023-05-05T17:01:42.843Z,84.52
2023-05-05T17:04:09.188Z,85.49
2023-05-05T17:06:35.510Z,86.52
2023-05-05T17:09:01.976Z,86.09
2023-05-05T17:11:28.297Z,86.54
2023-05-05T17:13:54.700Z,85.39
2023-05-05T17:16:21.022Z,84.55
2023-05-05T17:18:47.433Z,84.44
2023-05-05T17:21:13.779Z,83.72
2023-05-05T17:23:40.082Z,83.61
2023-05-05T17:26:06.416Z,83.19
2023-05-05T17:28:32.771Z,81.46
2023-05-05T17:30:59.086Z,80.09
2023-05-05T17:33:25.644Z,80.08
2023-05-05T17:35:51.981Z,80.48
2023-05-05T17:38:18.352Z,80.50
2023-05-05T17:40:44.817Z,80.04
2023-05-05T17:43:11.130Z,79.93
2023-05-05T17:45:37.503Z,79.79
2023-05-05T17:48:04.206Z,79.61
2023-05-05T17:50:30.611Z,78.43
2023-05-05T17:52:56.918Z,78.34
2023-05-05T17:55:23.222Z,78.90
2023-05-05T17:57:49.552Z,80.18
2023-05-05T18:00:16.253Z,81.41
2023-05-05T18:02:42.764Z,82.56
2023-05-05T18:05:09.671Z,81.81
2023-05-05T18:07:36.189Z,80.74
2023-05-05T18:10:02.506Z,81.25
2023-05-05T18:12:28.840Z,80.63
2023-05-05T18:14:55.245Z,80.37
2023-05-05T18:17:21.617Z,79.79
2023-05-05T18:19:49.262Z,79.43
2023-05-05T18:22:15.732Z,78.70
2023-05-05T18:24:42.052Z,78.25
2023-05-05T18:27:08.470Z,78.10
2023-05-05T18:29:35.595Z,78.87
2023-05-05T18:32:02.121Z,81.41
2023-05-05T18:34:28.495Z,81.69
2023-05-05T18:36:54.929Z,82.45
2023-05-05T18:39:21.263Z,83.39
2023-05-05T18:41:47.612Z,83.62
2023-05-05T18:44:13.981Z,83.50
2023-05-05T18:46:40.503Z,83.48
2023-05-05T18:49:06.883Z,82.65
2023-05-05T18:51:33.277Z,83.10
2023-05-05T18:53:59.969Z,84.54
2023-05-05T18:56:26.878Z,85.54
2023-05-05T18:58:53.237Z,86.34
2023-05-05T19:01:19.634Z,86.92
2023-05-05T19:03:46.978Z,88.16
2023-05-05T19:06:13.743Z,88.58
2023-05-05T19:08:40.181Z,88.55
2023-05-05T19:11:06.508Z,88.66
2023-05-05T19:13:32.810Z,88.39
2023-05-05T19:15:59.283Z,88.44
2023-05-05T19:18:25.632Z,88.37
2023-05-05T19:20:52.151Z,88.55
2023-05-05T19:23:18.609Z,88.36
2023-05-05T19:25:44.989Z,89.06
2023-05-05T19:28:11.368Z,89.35
2023-05-05T19:30:37.814Z,89.67
2023-05-05T19:33:04.292Z,91.03
2023-05-05T19:35:30.779Z,91.70
2023-05-05T19:37:57.120Z,92.77
2023-05-05T19:40:23.526Z,92.03
2023-05-05T19:42:49.881Z,91.93
2023-05-05T19:45:16.315Z,92.77
2023-05-05T19:47:42.649Z,97.63
2023-05-05T19:50:09.957Z,96.67
2023-05-05T19:52:36.519Z,94.92
2023-05-05T19:55:02.976Z,95.46
2023-05-05T19:57:29.372Z,95.46
2023-05-05T19:59:55.688Z,97.45
2023-05-05T20:02:22.094Z,97.48
2023-05-05T20:04:48.486Z,98.75
2023-05-05T20:07:14.787Z,97.67
2023-05-05T20:09:41.115Z,97.51
2023-05-05T20:12:07.757Z,98.39
2023-05-05T20:14:34.120Z,98.35
2023-05-05T20:17:00.475Z,98.85
2023-05-05T20:19:26.843Z,98.30
2023-05-05T20:21:53.172Z,98.26
2023-05-05T20:24:19.589Z,97.24
2023-05-05T20:26:45.897Z,97.83
2023-05-05T20:29:12.219Z,99.71
2023-05-05T20:31:38.614Z,98.48
2023-05-05T20:34:04.960Z,99.81
2023-05-05T20:36:31.319Z,98.91
2023-05-05T20:38:57.684Z,98.51
2023-05-05T20:41:24.044Z,98.15
2023-05-05T20:43:50.359Z,97.65
2023-05-05T20:46:16.741Z,97.58
2023-05-05T20:48:43.271Z,98.93
2023-05-05T20:51:09.677Z,98.58
2023-05-05T20:53:36.054Z,98.09
2023-05-05T20:56:02.380Z,98.67
2023-05-05T20:58:29.759Z,100.00
2023-05-05T21:00:56.124Z,100.00
2023-05-05T21:03:22.523Z,99.54
2023-05-05T21:05:48.895Z,98.96
2023-05-05T21:08:15.442Z,100.00
2023-05-05T21:10:41.802Z,100.00
2023-05-05T21:13:08.118Z,100.00
2023-05-05T21:15:36.947Z,100.00
2023-05-05T21:18:03.728Z,99.95
2023-05-05T21:20:30.054Z,100.00
2023-05-05T21:22:56.570Z,100.00
2023-05-05T21:25:23.295Z,100.00
2023-05-05T21:27:49.614Z,100.00
2023-05-05T21:30:17.152Z,100.00
2023-05-05T21:32:44.099Z,100.00
2023-05-05T21:35:10.539Z,100.00
2023-05-05T21:37:37.993Z,100.00
2023-05-05T21:40:06.067Z,100.00
2023-05-05T21:42:32.469Z,100.00
2023-05-05T21:44:58.781Z,100.00
2023-05-05T21:47:25.157Z,100.00
2023-05-05T21:49:51.568Z,100.00
2023-05-05T21:52:17.940Z,100.00
2023-05-05T21:54:44.634Z,100.00
2023-05-05T21:57:10.965Z,100.00
2023-05-05T21:59:37.360Z,100.00
2023-05-05T22:02:03.737Z,100.00
2023-05-05T22:04:30.117Z,100.00
2023-05-05T22:06:56.585Z,100.00
2023-05-05T22:09:22.911Z,100.00
2023-05-05T22:11:49.330Z,100.00
2023-05-05T22:14:15.664Z,100.00
2023-05-05T22:16:42.526Z,100.00
2023-05-05T22:19:09.008Z,100.00
2023-05-05T22:21:35.375Z,100.00
2023-05-05T22:24:01.721Z,100.00
2023-05-05T22:26:28.043Z,100.00
2023-05-05T22:28:54.345Z,100.00
2023-05-05T22:31:20.692Z,100.00
2023-05-05T22:33:47.044Z,100.00
2023-05-05T22:36:13.380Z,100.00
2023-05-05T22:38:39.724Z,100.00
2023-05-05T22:41:06.613Z,100.00
2023-05-05T22:43:32.942Z,100.00
2023-05-05T22:45:59.247Z,100.00
2023-05-05T22:48:25.580Z,100.00
2023-05-05T22:50:51.883Z,100.00
2023-05-05T22:53:18.218Z,100.00
2023-05-05T22:55:44.524Z,100.00
2023-05-05T22:58:10.863Z,100.00
2023-05-05T23:00:37.270Z,100.00
2023-05-05T23:03:04.006Z,100.00
2023-05-05T23:05:30.358Z,100.00
2023-05-05T23:07:56.643Z,100.00
2023-05-05T23:10:22.997Z,100.00
2023-05-05T23:12:49.446Z,100.00
2023-05-05T23:15:15.854Z,100.00
2023-05-05T23:17:42.223Z,100.00
2023-05-05T23:20:09.192Z,100.00
2023-05-05T23:22:35.530Z,100.00
2023-05-05T23:25:01.813Z,100.00
2023-05-05T23:27:28.135Z,100.00
2023-05-05T23:29:54.491Z,100.00
2023-05-05T23:32:20.842Z,100.00
2023-05-05T23:34:47.254Z,100.00
2023-05-05T23:37:13.852Z,100.00
2023-05-05T23:39:40.679Z,100.00
2023-05-05T23:42:07.025Z,100.00
2023-05-05T23:44:33.367Z,100.00
2023-05-05T23:46:59.730Z,100.00
2023-05-05T23:49:26.049Z,100.00
2023-05-05T23:51:52.725Z,100.00
2023-05-05T23:54:19.036Z,100.00
2023-05-05T23:56:45.772Z,100.00
2023-05-05T23:59:12.138Z,100.00
